Terminal Aerodrome Forecast
Issued by NWS Melbourne, FL

Home | Current Version | Previous Version | Text Only | Print | Product List | Glossary On
Versions: 1 2 3 4 5 6 7 8 9 10 11 12 13
000
FTUS42 KMLB 061330 AAA
TAFVRB
TAF AMD
KVRB 061330Z 0614/0712 18010KT P6SM BKN008
     FM061500 19014G22KT P6SM FEW020 BKN040
     FM061800 21017G24KT P6SM SCT030 BKN050
     FM062100 23013KT P6SM VCSH BKN050
     FM070000 25006KT P6SM SCT010 BKN040=

USA.gov is the U.S. government's official web portal to all federal, state and local government web resources and services.